createdAt,value
2022-10-11T00:02:26.612Z,42.30
2022-10-11T00:04:55.354Z,38.07
2022-10-11T00:07:22.787Z,35.30
2022-10-11T00:09:50.138Z,28.80
2022-10-11T00:12:17.509Z,32.43
2022-10-11T00:14:44.889Z,29.57
2022-10-11T00:17:12.253Z,34.83
2022-10-11T00:19:40.003Z,29.77
2022-10-11T00:22:08.821Z,39.47
2022-10-11T00:24:36.154Z,29.27
2022-10-11T00:27:03.502Z,34.53
2022-10-11T00:29:30.858Z,27.03
2022-10-11T00:31:58.217Z,28.57
2022-10-11T00:34:25.567Z,32.17
2022-10-11T00:36:52.913Z,29.73
2022-10-11T00:39:21.934Z,38.20
2022-10-11T00:41:49.406Z,32.07
2022-10-11T00:44:19.557Z,33.43
2022-10-11T00:46:54.997Z,32.10
2022-10-11T00:49:28.953Z,36.30
2022-10-11T00:51:58.892Z,38.37
2022-10-11T00:54:30.229Z,31.27
2022-10-11T00:57:00.643Z,32.30
2022-10-11T00:59:30.973Z,36.53
2022-10-11T01:01:58.509Z,33.93
2022-10-11T01:04:25.933Z,26.77
2022-10-11T01:06:54.278Z,26.97
2022-10-11T01:09:22.154Z,34.70
2022-10-11T01:11:51.982Z,29.73
2022-10-11T01:14:40.019Z,32.03
2022-10-11T01:17:14.241Z,32.23
2022-10-11T01:19:52.514Z,31.07
2022-10-11T01:22:34.177Z,35.23
2022-10-11T01:25:14.184Z,36.60
2022-10-11T01:27:49.425Z,29.47
2022-10-11T01:30:23.090Z,32.17
2022-10-11T01:32:59.123Z,30.20
2022-10-11T01:35:31.158Z,34.77
2022-10-11T01:38:04.173Z,32.87
2022-10-11T01:40:34.502Z,34.60
2022-10-11T01:43:02.785Z,33.63
2022-10-11T01:45:32.218Z,33.93
2022-10-11T01:48:07.673Z,34.10
2022-10-11T01:50:43.313Z,39.17
2022-10-11T01:53:40.516Z,27.03
2022-10-11T01:56:22.667Z,32.90
2022-10-11T01:59:00.333Z,38.07
2022-10-11T02:01:37.798Z,37.53
2022-10-11T02:04:09.926Z,30.03
2022-10-11T02:06:41.979Z,30.50
2022-10-11T02:09:15.750Z,30.37
2022-10-11T02:11:43.677Z,35.77
2022-10-11T02:14:13.101Z,27.97
2022-10-11T02:16:45.717Z,35.23
2022-10-11T02:19:14.489Z,36.63
2022-10-11T02:21:44.001Z,27.73
2022-10-11T02:24:14.402Z,32.33
2022-10-11T02:26:43.953Z,32.83
2022-10-11T02:29:13.534Z,36.73
2022-10-11T02:31:43.101Z,31.30
2022-10-11T02:34:15.965Z,24.50
2022-10-11T02:36:48.651Z,33.83
2022-10-11T02:39:19.518Z,32.00
2022-10-11T02:41:47.549Z,23.63
2022-10-11T02:44:17.721Z,25.03
2022-10-11T02:46:47.453Z,30.83
2022-10-11T02:49:15.217Z,29.83
2022-10-11T02:51:42.646Z,22.20
2022-10-11T02:54:10.121Z,28.13
2022-10-11T02:56:37.441Z,32.43
2022-10-11T02:59:04.764Z,28.10
2022-10-11T03:01:32.173Z,29.27
2022-10-11T03:04:00.864Z,31.70
2022-10-11T03:06:28.221Z,27.23
2022-10-11T03:08:55.582Z,31.17
2022-10-11T03:11:23.077Z,31.00
2022-10-11T03:13:50.449Z,28.83
2022-10-11T03:16:18.220Z,33.80
2022-10-11T03:18:45.533Z,41.80
2022-10-11T03:21:14.208Z,31.87
2022-10-11T03:23:42.453Z,28.63
2022-10-11T03:26:09.793Z,30.37
2022-10-11T03:28:37.163Z,31.73
2022-10-11T03:31:04.598Z,31.97
2022-10-11T03:33:33.194Z,29.83
2022-10-11T03:36:00.518Z,26.17
2022-10-11T03:38:29.292Z,25.47
2022-10-11T03:40:56.657Z,32.10
2022-10-11T03:43:24.062Z,28.37
2022-10-11T03:45:51.397Z,28.47
2022-10-11T03:48:18.756Z,31.63
2022-10-11T03:50:46.199Z,29.80
2022-10-11T03:53:13.573Z,32.27
2022-10-11T03:55:42.485Z,32.37
2022-10-11T03:58:10.037Z,35.60
2022-10-11T04:00:37.658Z,35.43
2022-10-11T04:03:05.122Z,31.30
2022-10-11T04:05:32.526Z,31.97
2022-10-11T04:07:59.861Z,37.90
2022-10-11T04:10:27.736Z,37.47
2022-10-11T04:12:56.429Z,31.97
2022-10-11T04:15:23.776Z,39.67
2022-10-11T04:17:51.380Z,34.73
2022-10-11T04:20:18.779Z,44.67
2022-10-11T04:22:46.151Z,35.07
2022-10-11T04:25:13.544Z,39.27
2022-10-11T04:27:41.143Z,40.50
2022-10-11T04:30:12.040Z,30.57
2022-10-11T04:32:39.400Z,33.73
2022-10-11T04:35:07.405Z,34.20
2022-10-11T04:37:34.816Z,37.47
2022-10-11T04:40:02.332Z,29.47
2022-10-11T04:42:29.681Z,40.13
2022-10-11T04:44:57.180Z,40.63
2022-10-11T04:47:25.897Z,34.23
2022-10-11T04:49:53.262Z,33.23
2022-10-11T04:52:25.373Z,40.00
2022-10-11T04:54:53.163Z,36.37
2022-10-11T04:57:20.525Z,30.27
2022-10-11T04:59:50.212Z,39.63
2022-10-11T05:02:17.973Z,39.17
2022-10-11T05:04:46.826Z,41.47
2022-10-11T05:07:16.330Z,30.43
2022-10-11T05:09:43.644Z,30.23
2022-10-11T05:12:11.076Z,34.20
2022-10-11T05:14:38.453Z,38.90
2022-10-11T05:17:05.859Z,31.83
2022-10-11T05:19:33.213Z,35.17
2022-10-11T05:22:01.908Z,39.60
2022-10-11T05:24:29.243Z,36.80
2022-10-11T05:26:59.792Z,40.30
2022-10-11T05:29:30.571Z,44.43
2022-10-11T05:31:57.946Z,37.17
2022-10-11T05:34:25.394Z,32.97
2022-10-11T05:36:52.740Z,39.40
2022-10-11T05:39:21.376Z,43.77
2022-10-11T05:41:48.740Z,30.77
2022-10-11T05:44:16.093Z,39.37
2022-10-11T05:46:43.444Z,33.17
2022-10-11T05:49:10.825Z,47.13
2022-10-11T05:51:38.177Z,35.77
2022-10-11T05:54:05.542Z,36.67
2022-10-11T05:56:34.279Z,45.87
2022-10-11T05:59:02.640Z,37.57
2022-10-11T06:01:30.201Z,34.13
2022-10-11T06:03:57.682Z,39.53
2022-10-11T06:06:25.045Z,37.67
2022-10-11T06:08:52.441Z,39.80
2022-10-11T06:11:22.005Z,39.20
2022-10-11T06:13:50.726Z,49.90
2022-10-11T06:16:18.145Z,44.60
2022-10-11T06:18:45.527Z,54.47
2022-10-11T06:21:15.321Z,47.10
2022-10-11T06:23:42.717Z,60.10
2022-10-11T06:26:11.069Z,46.80
2022-10-11T06:28:38.556Z,44.17
2022-10-11T06:31:07.546Z,52.97
2022-10-11T06:33:35.102Z,44.90
2022-10-11T06:36:07.649Z,51.10
2022-10-11T06:38:35.449Z,54.13
2022-10-11T06:41:09.977Z,48.50
2022-10-11T06:43:37.322Z,55.80
2022-10-11T06:46:05.082Z,55.40
2022-10-11T06:48:34.002Z,55.07
2022-10-11T06:51:01.571Z,51.63
2022-10-11T06:53:29.090Z,49.03
2022-10-11T06:56:03.163Z,48.63
2022-10-11T06:58:30.912Z,44.63
2022-10-11T07:01:00.995Z,45.83
2022-10-11T07:03:28.725Z,45.23
2022-10-11T07:06:02.588Z,40.23
2022-10-11T07:08:30.342Z,36.43
2022-10-11T07:11:00.816Z,31.23
2022-10-11T07:13:28.265Z,37.57
2022-10-11T07:15:55.849Z,31.97
2022-10-11T07:18:23.408Z,30.10
2022-10-11T07:20:50.769Z,27.93
2022-10-11T07:23:19.682Z,22.97
2022-10-11T07:25:47.436Z,22.60
2022-10-11T07:28:14.936Z,26.37
2022-10-11T07:30:43.428Z,21.53
2022-10-11T07:33:10.830Z,25.63
2022-10-11T07:35:38.884Z,21.93
2022-10-11T07:38:07.233Z,21.27
2022-10-11T07:40:42.778Z,20.57
2022-10-11T07:43:10.196Z,21.00
2022-10-11T07:45:38.373Z,20.60
2022-10-11T07:48:06.515Z,20.43
2022-10-11T07:50:34.360Z,21.43
2022-10-11T07:53:02.032Z,22.40
2022-10-11T07:55:30.118Z,23.07
2022-10-11T07:57:59.082Z,23.93
2022-10-11T08:00:26.708Z,22.73
2022-10-11T08:02:54.121Z,22.47
2022-10-11T08:05:21.598Z,22.37
2022-10-11T08:07:49.200Z,23.47
2022-10-11T08:10:17.875Z,24.30
2022-10-11T08:12:47.817Z,26.90
2022-10-11T08:15:16.700Z,24.47
2022-10-11T08:17:44.137Z,24.23
2022-10-11T08:20:11.614Z,23.60
2022-10-11T08:22:39.337Z,24.17
2022-10-11T08:25:07.533Z,24.83
2022-10-11T08:27:34.970Z,24.97
2022-10-11T08:30:02.396Z,27.20
2022-10-11T08:32:31.502Z,27.13
2022-10-11T08:34:58.862Z,25.10
2022-10-11T08:37:26.466Z,24.87
2022-10-11T08:39:53.885Z,25.03
2022-10-11T08:42:28.801Z,24.63
2022-10-11T08:45:10.485Z,24.50
2022-10-11T08:47:41.505Z,25.10
2022-10-11T08:50:17.257Z,23.07
2022-10-11T08:52:47.769Z,25.73
2022-10-11T08:55:20.297Z,25.80
2022-10-11T08:57:53.013Z,24.60
2022-10-11T09:00:21.042Z,22.00
2022-10-11T09:03:10.216Z,23.30
2022-10-11T09:05:49.616Z,23.70
2022-10-11T09:08:22.293Z,21.67
2022-10-11T09:10:56.965Z,22.13
2022-10-11T09:13:52.466Z,21.00
2022-10-11T09:16:28.099Z,21.27
2022-10-11T09:19:23.461Z,21.17
2022-10-11T09:21:56.432Z,21.53
2022-10-11T09:24:31.822Z,21.10
2022-10-11T09:27:01.332Z,21.63
2022-10-11T09:29:43.257Z,22.23
2022-10-11T09:32:15.659Z,21.93
2022-10-11T09:34:44.578Z,21.37
2022-10-11T09:37:19.100Z,22.10
2022-10-11T09:39:50.014Z,22.10
2022-10-11T09:42:17.488Z,21.50
2022-10-11T09:44:48.429Z,21.80
2022-10-11T09:47:17.938Z,22.17
2022-10-11T09:49:50.068Z,21.70
2022-10-11T09:52:20.177Z,22.57
2022-10-11T09:54:50.459Z,24.30
2022-10-11T09:57:20.558Z,22.20
2022-10-11T10:00:02.937Z,21.83
2022-10-11T10:02:43.738Z,22.23
2022-10-11T10:05:18.184Z,22.53
2022-10-11T10:08:11.122Z,20.87
2022-10-11T10:10:40.232Z,24.50
2022-10-11T10:13:20.658Z,22.57
2022-10-11T10:15:50.705Z,22.83
2022-10-11T10:18:23.599Z,23.30
2022-10-11T10:20:57.610Z,22.73
2022-10-11T10:23:27.266Z,24.50
2022-10-11T10:26:10.704Z,22.70
2022-10-11T10:28:38.227Z,22.67
2022-10-11T10:31:05.834Z,22.43
2022-10-11T10:33:35.613Z,22.43
2022-10-11T10:36:08.325Z,23.03
2022-10-11T10:38:39.919Z,23.70
2022-10-11T10:41:10.350Z,23.13
2022-10-11T10:43:39.284Z,22.70
2022-10-11T10:46:13.513Z,24.50
2022-10-11T10:51:47.224Z,22.53
2022-10-11T10:54:20.397Z,23.40
2022-10-11T10:56:53.157Z,24.70
2022-10-11T10:59:41.037Z,22.50
2022-10-11T11:02:35.468Z,23.30
2022-10-11T11:05:07.194Z,23.27
2022-10-11T11:07:39.463Z,25.20
2022-10-11T11:10:08.460Z,22.53
2022-10-11T11:12:43.346Z,26.93
2022-10-11T11:15:13.065Z,25.53
2022-10-11T11:17:50.290Z,23.63
2022-10-11T11:20:27.858Z,23.63
2022-10-11T11:23:01.086Z,23.93
2022-10-11T11:25:42.595Z,23.50
2022-10-11T11:28:27.426Z,24.17
2022-10-11T11:30:59.271Z,23.70
2022-10-11T11:33:34.567Z,23.57
2022-10-11T11:36:04.943Z,28.63
2022-10-11T11:38:41.725Z,23.10
2022-10-11T11:41:15.435Z,22.97
2022-10-11T11:43:56.861Z,26.50
2022-10-11T11:46:26.853Z,22.27
2022-10-11T11:48:54.730Z,23.03
2022-10-11T11:51:30.469Z,23.07
2022-10-11T11:54:09.107Z,25.20
2022-10-11T11:56:48.846Z,24.23
2022-10-11T11:59:22.073Z,23.17
2022-10-11T12:01:54.713Z,23.13
2022-10-11T12:04:26.542Z,23.63
2022-10-11T12:07:15.979Z,23.13
2022-10-11T12:09:50.407Z,25.03
2022-10-11T12:12:30.339Z,23.10
2022-10-11T12:15:05.739Z,22.97
2022-10-11T12:17:33.189Z,25.30
2022-10-11T12:20:14.483Z,24.13
2022-10-11T12:23:00.312Z,27.13
2022-10-11T12:25:39.529Z,23.63
2022-10-11T12:28:48.594Z,24.87
2022-10-11T12:31:22.524Z,24.43
2022-10-11T12:33:53.044Z,24.13
2022-10-11T12:36:33.989Z,23.37
2022-10-11T12:39:41.382Z,23.67
2022-10-11T12:42:30.145Z,23.70
2022-10-11T12:45:32.100Z,23.53
2022-10-11T12:48:09.077Z,23.40
2022-10-11T12:50:43.938Z,27.33
2022-10-11T12:53:23.765Z,28.30
2022-10-11T12:55:58.882Z,25.60
2022-10-11T12:58:29.519Z,23.90
2022-10-11T13:01:22.923Z,24.40
2022-10-11T13:04:02.017Z,26.07
2022-10-11T13:06:33.222Z,23.33
2022-10-11T13:09:05.618Z,25.07
2022-10-11T13:11:35.461Z,24.63
2022-10-11T13:14:10.929Z,25.17
2022-10-11T13:16:56.597Z,27.50
2022-10-11T13:19:24.511Z,24.07
2022-10-11T13:21:54.263Z,24.33
2022-10-11T13:24:23.043Z,23.67
2022-10-11T13:26:52.532Z,24.47
2022-10-11T13:29:30.833Z,23.50
2022-10-11T13:31:58.388Z,24.23
2022-10-11T13:34:26.039Z,23.70
2022-10-11T13:36:57.567Z,24.20
2022-10-11T13:39:31.167Z,24.07
2022-10-11T13:41:59.411Z,23.87
2022-10-11T13:44:28.290Z,23.70
2022-10-11T13:46:56.119Z,24.17
2022-10-11T13:49:29.068Z,26.30
2022-10-11T13:52:00.988Z,24.07
2022-10-11T13:54:56.122Z,24.10
2022-10-11T13:57:33.182Z,24.07
2022-10-11T14:00:03.965Z,23.43
2022-10-11T14:02:39.535Z,23.70
2022-10-11T14:05:07.689Z,23.50
2022-10-11T14:07:37.705Z,23.43
2022-10-11T14:10:05.919Z,23.73
2022-10-11T14:12:38.019Z,22.87
2022-10-11T14:15:10.722Z,23.37
2022-10-11T14:17:43.168Z,23.60
2022-10-11T14:20:16.770Z,23.07
2022-10-11T14:22:44.325Z,24.13
2022-10-11T14:25:12.237Z,23.47
2022-10-11T14:27:40.053Z,22.93
2022-10-11T14:30:30.941Z,23.10
2022-10-11T14:33:00.680Z,23.93
2022-10-11T14:35:30.797Z,22.90
2022-10-11T14:37:58.742Z,23.83
2022-10-11T14:40:28.988Z,24.67
2022-10-11T14:42:56.892Z,23.57
2022-10-11T14:45:25.725Z,23.57
2022-10-11T14:47:53.430Z,25.67
2022-10-11T14:50:29.943Z,23.47
2022-10-11T14:52:57.941Z,23.00
2022-10-11T14:55:26.148Z,23.60
2022-10-11T14:57:53.609Z,22.83
2022-10-11T15:00:23.603Z,22.33
2022-10-11T15:02:53.515Z,22.87
2022-10-11T15:05:21.892Z,22.67
2022-10-11T15:07:49.543Z,23.87
2022-10-11T15:10:23.320Z,23.10
2022-10-11T15:12:51.865Z,23.30
2022-10-11T15:15:21.154Z,22.90
2022-10-11T15:17:50.304Z,23.43
2022-10-11T15:20:21.977Z,23.10
2022-10-11T15:22:49.506Z,24.23
2022-10-11T15:25:17.287Z,23.87
2022-10-11T15:27:44.939Z,23.27
2022-10-11T15:30:18.303Z,23.30
2022-10-11T15:32:45.806Z,22.90
2022-10-11T15:35:14.661Z,22.73
2022-10-11T15:37:43.682Z,23.70
2022-10-11T15:40:20.924Z,22.83
2022-10-11T15:42:48.822Z,22.63
2022-10-11T15:45:16.685Z,22.57
2022-10-11T15:47:44.468Z,24.60
2022-10-11T15:50:23.482Z,22.00
2022-10-11T15:52:52.582Z,22.17
2022-10-11T15:55:20.675Z,21.90
2022-10-11T15:57:48.902Z,22.17
2022-10-11T16:00:21.973Z,21.83
2022-10-11T16:02:51.519Z,21.70
2022-10-11T16:05:19.496Z,21.73
2022-10-11T16:07:46.913Z,21.20
2022-10-11T16:10:15.840Z,22.17
2022-10-11T16:12:43.245Z,21.90
2022-10-11T16:15:11.523Z,21.33
2022-10-11T16:17:39.288Z,21.70
2022-10-11T16:20:07.793Z,20.87
2022-10-11T16:22:35.684Z,20.37
2022-10-11T16:25:03.905Z,20.30
2022-10-11T16:27:33.185Z,19.83
2022-10-11T16:30:01.410Z,20.63
2022-10-11T16:32:29.279Z,20.37
2022-10-11T16:34:56.754Z,20.17
2022-10-11T16:37:24.231Z,23.30
2022-10-11T16:39:51.686Z,24.70
2022-10-11T16:42:19.206Z,19.90
2022-10-11T16:44:47.951Z,19.17
2022-10-11T16:47:16.633Z,20.47
2022-10-11T16:49:44.047Z,19.80
2022-10-11T16:52:13.842Z,22.43
2022-10-11T16:54:44.266Z,19.70
2022-10-11T16:57:12.370Z,19.87
2022-10-11T16:59:40.238Z,19.27
2022-10-11T17:02:11.749Z,20.63
2022-10-11T17:04:39.226Z,19.23
2022-10-11T17:07:12.122Z,18.87
2022-10-11T17:09:43.807Z,17.80
2022-10-11T17:12:12.997Z,17.97
2022-10-11T17:14:41.403Z,17.20
2022-10-11T17:17:11.537Z,17.93
2022-10-11T17:19:45.008Z,23.17
2022-10-11T17:22:14.416Z,17.67
2022-10-11T17:24:42.099Z,19.47
2022-10-11T17:27:09.786Z,18.17
2022-10-11T17:29:37.224Z,18.47
2022-10-11T17:32:05.052Z,17.73
2022-10-11T17:34:34.176Z,27.00
2022-10-11T17:37:01.763Z,23.37
2022-10-11T17:39:29.342Z,22.73
2022-10-11T17:41:56.849Z,18.97
2022-10-11T17:44:24.299Z,19.60
2022-10-11T17:46:51.756Z,19.83
2022-10-11T17:49:19.333Z,23.93
2022-10-11T17:51:48.168Z,21.97
2022-10-11T17:54:16.179Z,21.00
2022-10-11T17:56:43.625Z,20.63
2022-10-11T17:59:16.006Z,22.60
2022-10-11T18:01:43.632Z,17.03
2022-10-11T18:04:16.385Z,18.27
2022-10-11T18:06:45.489Z,17.30
2022-10-11T18:09:15.106Z,19.23
2022-10-11T18:11:42.688Z,16.37
2022-10-11T18:14:10.362Z,20.93
2022-10-11T18:16:38.297Z,20.77
2022-10-11T18:19:07.535Z,19.43
2022-10-11T18:21:36.657Z,18.93
2022-10-11T18:24:07.610Z,16.20
2022-10-11T18:26:36.645Z,16.77
2022-10-11T18:29:04.729Z,23.27
2022-10-11T18:31:34.910Z,20.23
2022-10-11T18:34:03.025Z,15.93
2022-10-11T18:36:31.382Z,18.43
2022-10-11T18:39:00.913Z,16.73
2022-10-11T18:41:32.862Z,19.27
2022-10-11T18:44:03.708Z,17.37
2022-10-11T18:46:31.838Z,15.70
2022-10-11T18:49:01.800Z,17.03
2022-10-11T18:51:30.662Z,16.10
2022-10-11T18:53:59.947Z,21.17
2022-10-11T18:56:29.077Z,25.17
2022-10-11T18:58:58.498Z,17.53
2022-10-11T19:01:30.620Z,17.33
2022-10-11T19:04:01.519Z,16.70
2022-10-11T19:06:32.926Z,22.27
2022-10-11T19:09:04.397Z,26.63
2022-10-11T19:11:34.220Z,18.07
2022-10-11T19:14:07.550Z,22.13
2022-10-11T19:16:41.858Z,18.80
2022-10-11T19:19:13.188Z,18.80
2022-10-11T19:21:43.463Z,17.73
2022-10-11T19:24:13.305Z,18.60
2022-10-11T19:26:43.940Z,19.57
2022-10-11T19:29:15.150Z,19.23
2022-10-11T19:31:48.972Z,18.53
2022-10-11T19:34:18.579Z,19.03
2022-10-11T19:36:50.468Z,19.63
2022-10-11T19:39:24.100Z,19.60
2022-10-11T19:41:53.804Z,20.17
2022-10-11T19:44:23.386Z,19.53
2022-10-11T19:46:54.276Z,19.33
2022-10-11T19:49:25.438Z,19.27
2022-10-11T19:51:55.650Z,20.07
2022-10-11T19:54:26.790Z,19.40
2022-10-11T19:56:55.609Z,19.00
2022-10-11T19:59:23.651Z,21.03
2022-10-11T20:01:53.458Z,19.13
2022-10-11T20:07:10.758Z,18.53
2022-10-11T20:09:38.508Z,19.77
2022-10-11T20:12:06.395Z,18.20
2022-10-11T20:14:34.236Z,21.40
2022-10-11T20:17:03.329Z,24.73
2022-10-11T20:19:31.721Z,20.90
2022-10-11T20:22:02.738Z,20.97
2022-10-11T20:24:33.530Z,18.90
2022-10-11T20:27:02.700Z,25.40
2022-10-11T20:29:30.615Z,25.07
2022-10-11T20:31:58.967Z,19.57
2022-10-11T20:34:28.559Z,19.77
2022-10-11T20:36:56.000Z,23.47
2022-10-11T20:39:23.644Z,16.80
2022-10-11T20:41:51.079Z,22.03
2022-10-11T20:44:18.453Z,21.90
2022-10-11T20:46:45.825Z,21.93
2022-10-11T20:49:13.386Z,20.20
2022-10-11T20:51:42.664Z,27.40
2022-10-11T20:54:10.616Z,22.80
2022-10-11T20:56:38.658Z,20.00
2022-10-11T20:59:06.561Z,23.57
2022-10-11T21:01:35.475Z,24.97
2022-10-11T21:04:03.180Z,17.70
2022-10-11T21:06:31.915Z,17.27
2022-10-11T21:09:01.462Z,18.70
2022-10-11T21:11:39.918Z,23.30
2022-10-11T21:14:07.423Z,20.73
2022-10-11T21:16:35.378Z,18.27
2022-10-11T21:19:03.174Z,24.00
2022-10-11T21:21:31.434Z,16.93
2022-10-11T21:24:01.668Z,23.47
2022-10-11T21:26:29.755Z,17.43
2022-10-11T21:28:58.972Z,20.07
2022-10-11T21:31:31.029Z,16.80
2022-10-11T21:34:01.096Z,16.77
2022-10-11T21:36:28.560Z,17.03
2022-10-11T21:38:55.958Z,16.53
2022-10-11T21:41:25.815Z,17.47
2022-10-11T21:43:53.562Z,20.60
2022-10-11T21:46:22.596Z,22.27
2022-10-11T21:48:50.768Z,17.90
2022-10-11T21:51:23.997Z,17.17
2022-10-11T21:53:51.998Z,21.27
2022-10-11T21:56:19.639Z,21.30
2022-10-11T21:58:49.238Z,18.47
2022-10-11T22:01:17.529Z,17.17
2022-10-11T22:03:45.176Z,18.60
2022-10-11T22:06:13.253Z,17.77
2022-10-11T22:08:40.912Z,16.93
2022-10-11T22:11:09.233Z,21.83
2022-10-11T22:13:36.904Z,18.97
2022-10-11T22:16:06.159Z,20.00
2022-10-11T22:18:33.983Z,18.23
2022-10-11T22:21:05.499Z,15.97
2022-10-11T22:23:32.925Z,17.50
2022-10-11T22:26:04.768Z,17.40
2022-10-11T22:28:32.347Z,18.57
2022-10-11T22:31:00.002Z,21.33
2022-10-11T22:33:28.662Z,17.87
2022-10-11T22:35:56.276Z,21.00
2022-10-11T22:38:23.932Z,20.03
2022-10-11T22:40:51.517Z,17.80
2022-10-11T22:43:19.786Z,19.07
2022-10-11T22:45:47.205Z,17.93
2022-10-11T22:48:14.562Z,17.00
2022-10-11T22:50:43.609Z,16.67
2022-10-11T22:53:11.954Z,20.63
2022-10-11T22:55:39.306Z,16.90
2022-10-11T22:58:06.751Z,17.63
2022-10-11T23:00:34.754Z,17.40
2022-10-11T23:03:02.132Z,18.80
2022-10-11T23:05:29.500Z,16.97
2022-10-11T23:07:58.197Z,20.33
2022-10-11T23:10:25.681Z,17.63
2022-10-11T23:12:53.140Z,15.73
2022-10-11T23:15:20.550Z,18.33
2022-10-11T23:17:47.961Z,17.37
2022-10-11T23:20:15.533Z,17.37
2022-10-11T23:22:42.877Z,22.90
2022-10-11T23:25:11.645Z,16.93
2022-10-11T23:27:39.713Z,16.53
2022-10-11T23:30:08.650Z,21.27
2022-10-11T23:32:38.952Z,17.13
2022-10-11T23:35:07.142Z,23.50
2022-10-11T23:37:34.755Z,18.00
2022-10-11T23:40:02.164Z,21.00
2022-10-11T23:42:33.258Z,20.00
2022-10-11T23:45:00.597Z,18.93
2022-10-11T23:47:27.973Z,18.20
2022-10-11T23:49:55.353Z,17.67
2022-10-11T23:52:22.713Z,16.77
2022-10-11T23:54:50.400Z,18.97
2022-10-11T23:57:18.108Z,23.97
2022-10-11T23:59:46.926Z,27.83
